createdAt,value
2022-08-22T00:00:22.904Z,73.39
2022-08-22T00:01:23.885Z,74.15
2022-08-22T00:02:22.905Z,74.34
2022-08-22T00:02:55.765Z,72.81
2022-08-22T00:02:56.264Z,61.69
2022-08-22T00:02:57.282Z,57.95
2022-08-22T00:02:58.483Z,67.24
2022-08-22T00:02:59.616Z,60.57
2022-08-22T00:02:59.809Z,52.08
2022-08-22T00:03:03.387Z,61.72
2022-08-22T00:03:04.491Z,53.78
2022-08-22T00:03:22.866Z,74.24
2022-08-22T00:04:22.845Z,73.58
2022-08-22T00:05:22.835Z,74.05
2022-08-22T00:06:22.816Z,74.34
2022-08-22T00:07:22.805Z,73.67
2022-08-22T00:08:22.789Z,73.67
2022-08-22T00:09:22.773Z,73.58
2022-08-22T00:10:25.206Z,74.15
2022-08-22T00:11:22.746Z,73.96
2022-08-22T00:12:22.731Z,74.34
2022-08-22T00:13:22.718Z,73.96
2022-08-22T00:14:22.711Z,74.82
2022-08-22T00:15:42.109Z,74.53
2022-08-22T00:16:22.674Z,74.44
2022-08-22T00:17:22.659Z,74.82
2022-08-22T00:18:22.643Z,74.82
2022-08-22T00:19:22.631Z,74.63
2022-08-22T00:20:28.246Z,74.53
2022-08-22T00:21:22.602Z,74.69
2022-08-22T00:22:22.587Z,75.16
2022-08-22T00:23:22.572Z,75.16
2022-08-22T00:24:22.557Z,75.26
2022-08-22T00:25:25.922Z,75.07
2022-08-22T00:26:22.538Z,74.69
2022-08-22T00:27:22.516Z,75.35
2022-08-22T00:28:22.498Z,75.26
2022-08-22T00:29:22.494Z,75.07
2022-08-22T00:30:22.469Z,75.26
2022-08-22T00:31:22.465Z,75.26
2022-08-22T00:32:22.442Z,75.74
2022-08-22T00:33:22.430Z,75.54
2022-08-22T00:34:22.413Z,75.74
2022-08-22T00:35:22.400Z,75.45
2022-08-22T00:36:22.397Z,75.54
2022-08-22T00:37:22.370Z,75.64
2022-08-22T00:38:22.358Z,75.45
2022-08-22T00:39:22.346Z,75.45
2022-08-22T00:40:22.450Z,75.35
2022-08-22T00:41:22.336Z,75.26
2022-08-22T00:42:29.498Z,75.64
2022-08-22T00:43:22.286Z,75.74
2022-08-22T00:44:22.268Z,76.12
2022-08-22T00:45:22.253Z,75.93
2022-08-22T00:46:22.253Z,75.45
2022-08-22T00:47:22.229Z,76.03
2022-08-22T00:48:22.213Z,76.03
2022-08-22T00:49:22.200Z,75.83
2022-08-22T00:50:22.181Z,76.40
2022-08-22T00:51:22.166Z,76.40
2022-08-22T00:52:22.150Z,76.69
2022-08-22T00:53:22.144Z,76.40
2022-08-22T00:54:22.122Z,76.31
2022-08-22T00:55:22.120Z,77.08
2022-08-22T00:56:22.106Z,76.88
2022-08-22T00:57:22.078Z,76.79
2022-08-22T00:58:22.064Z,77.23
2022-08-22T00:59:23.247Z,77.03
2022-08-22T01:00:22.055Z,77.03
2022-08-22T01:01:22.108Z,77.32
2022-08-22T01:02:22.013Z,77.13
2022-08-22T01:03:22.008Z,77.70
2022-08-22T01:04:21.973Z,77.99
2022-08-22T01:05:21.961Z,77.61
2022-08-22T01:06:21.947Z,77.99
2022-08-22T01:07:21.935Z,77.99
2022-08-22T01:08:21.917Z,78.37
2022-08-22T01:09:21.902Z,78.37
2022-08-22T01:10:21.891Z,78.28
2022-08-22T01:11:21.875Z,78.56
2022-08-22T01:12:21.886Z,77.99
2022-08-22T01:13:21.865Z,78.37
2022-08-22T01:14:34.180Z,78.28
2022-08-22T01:15:21.816Z,77.70
2022-08-22T01:16:21.804Z,77.99
2022-08-22T01:17:21.783Z,78.56
2022-08-22T01:18:21.773Z,78.18
2022-08-22T01:19:21.759Z,77.99
2022-08-22T01:20:21.737Z,78.28
2022-08-22T01:21:24.167Z,78.09
2022-08-22T01:22:21.714Z,78.18
2022-08-22T01:23:21.703Z,78.75
2022-08-22T01:24:21.682Z,78.66
2022-08-22T01:25:25.850Z,78.85
2022-08-22T01:26:21.654Z,78.94
2022-08-22T01:27:21.636Z,78.75
2022-08-22T01:28:22.854Z,79.14
2022-08-22T01:29:27.776Z,79.04
2022-08-22T01:30:23.358Z,79.33
2022-08-22T01:31:21.576Z,79.80
2022-08-22T01:32:21.563Z,79.61
2022-08-22T01:33:21.551Z,79.71
2022-08-22T01:34:21.542Z,79.80
2022-08-22T01:35:21.543Z,79.90
2022-08-22T01:36:21.504Z,79.61
2022-08-22T01:37:21.488Z,79.99
2022-08-22T01:38:21.476Z,80.09
2022-08-22T01:39:21.458Z,80.19
2022-08-22T01:40:21.481Z,79.80
2022-08-22T01:41:21.429Z,80.19
2022-08-22T01:42:21.419Z,79.99
2022-08-22T01:43:21.403Z,79.90
2022-08-22T01:44:21.388Z,80.66
2022-08-22T01:45:21.371Z,80.76
2022-08-22T01:46:21.664Z,80.66
2022-08-22T01:47:21.345Z,80.66
2022-08-22T01:48:21.326Z,80.85
2022-08-22T01:49:21.310Z,80.85
2022-08-22T01:50:21.298Z,80.66
2022-08-22T01:51:21.281Z,80.85
2022-08-22T01:52:21.273Z,80.85
2022-08-22T01:53:21.251Z,81.33
2022-08-22T01:54:21.238Z,81.04
2022-08-22T01:55:21.252Z,81.14
2022-08-22T01:56:21.265Z,80.85
2022-08-22T01:57:21.192Z,80.95
2022-08-22T01:58:21.178Z,81.14
2022-08-22T01:59:21.164Z,81.24
2022-08-22T02:00:34.920Z,81.52
2022-08-22T02:01:21.163Z,81.33
2022-08-22T02:02:21.119Z,81.33
2022-08-22T02:03:21.104Z,81.43
2022-08-22T02:04:21.088Z,81.33
2022-08-22T02:05:21.073Z,81.52
2022-08-22T02:06:21.063Z,81.81
2022-08-22T02:07:21.071Z,81.62
2022-08-22T02:08:21.029Z,81.90
2022-08-22T02:09:21.015Z,81.71
2022-08-22T02:10:20.999Z,82.00
2022-08-22T02:11:20.983Z,81.90
2022-08-22T02:12:22.011Z,81.24
2022-08-22T02:13:20.957Z,81.52
2022-08-22T02:14:20.941Z,81.52
2022-08-22T02:15:20.925Z,81.52
2022-08-22T02:16:20.922Z,81.27
2022-08-22T02:17:20.894Z,81.47
2022-08-22T02:18:20.882Z,81.47
2022-08-22T02:19:20.864Z,81.37
2022-08-22T02:20:20.860Z,81.27
2022-08-22T02:21:20.838Z,81.18
2022-08-22T02:22:20.827Z,81.09
2022-08-22T02:23:20.808Z,80.90
2022-08-22T02:24:20.798Z,80.51
2022-08-22T02:25:20.778Z,80.61
2022-08-22T02:26:20.763Z,80.90
2022-08-22T02:27:20.751Z,80.70
2022-08-22T02:28:20.733Z,80.70
2022-08-22T02:29:20.721Z,80.70
2022-08-22T02:30:20.706Z,80.70
2022-08-22T02:31:20.689Z,80.70
2022-08-22T02:32:20.672Z,81.09
2022-08-22T02:33:20.663Z,81.09
2022-08-22T02:34:20.645Z,81.18
2022-08-22T02:35:20.636Z,80.90
2022-08-22T02:36:20.615Z,81.27
2022-08-22T02:37:20.621Z,81.09
2022-08-22T02:38:20.587Z,81.66
2022-08-22T02:39:20.579Z,81.56
2022-08-22T02:40:20.582Z,81.37
2022-08-22T02:41:20.540Z,81.56
2022-08-22T02:42:20.535Z,82.04
2022-08-22T02:43:20.512Z,82.32
2022-08-22T02:44:20.499Z,82.23
2022-08-22T02:45:20.481Z,82.32
2022-08-22T02:46:20.472Z,82.42
2022-08-22T02:47:20.455Z,82.81
2022-08-22T02:48:20.439Z,82.71
2022-08-22T02:49:20.423Z,82.81
2022-08-22T02:50:20.409Z,82.71
2022-08-22T02:51:20.394Z,82.71
2022-08-22T02:52:20.378Z,82.61
2022-08-22T02:53:20.365Z,82.52
2022-08-22T02:54:20.351Z,82.61
2022-08-22T02:55:20.336Z,82.42
2022-08-22T02:56:20.322Z,82.71
2022-08-22T02:57:20.303Z,82.71
2022-08-22T02:58:20.291Z,82.52
2022-08-22T02:59:20.275Z,82.52
2022-08-22T03:00:31.090Z,82.52
2022-08-22T03:01:20.268Z,82.71
2022-08-22T03:02:20.247Z,82.90
2022-08-22T03:03:20.218Z,82.42
2022-08-22T03:04:20.206Z,82.90
2022-08-22T03:05:20.188Z,82.81
2022-08-22T03:06:20.173Z,82.71
2022-08-22T03:07:20.159Z,83.00
2022-08-22T03:08:20.143Z,82.71
2022-08-22T03:09:20.127Z,82.90
2022-08-22T03:10:20.116Z,82.86
2022-08-22T03:11:20.104Z,83.72
2022-08-22T03:12:20.088Z,83.53
2022-08-22T03:13:20.070Z,83.24
2022-08-22T03:14:20.055Z,83.34
2022-08-22T03:15:20.042Z,83.24
2022-08-22T03:16:20.026Z,83.14
2022-08-22T03:17:20.011Z,83.53
2022-08-22T03:18:19.998Z,83.62
2022-08-22T03:19:19.982Z,83.81
2022-08-22T03:20:19.967Z,83.62
2022-08-22T03:21:19.961Z,83.81
2022-08-22T03:22:19.939Z,83.72
2022-08-22T03:23:19.924Z,83.62
2022-08-22T03:24:19.907Z,83.53
2022-08-22T03:25:19.892Z,83.81
2022-08-22T03:26:19.878Z,84.10
2022-08-22T03:27:32.712Z,84.20
2022-08-22T03:28:19.852Z,83.91
2022-08-22T03:29:19.833Z,83.81
2022-08-22T03:30:19.821Z,84.00
2022-08-22T03:31:19.804Z,84.10
2022-08-22T03:32:19.788Z,84.58
2022-08-22T03:33:19.783Z,84.39
2022-08-22T03:34:19.762Z,84.96
2022-08-22T03:35:19.745Z,84.58
2022-08-22T03:36:19.730Z,85.15
2022-08-22T03:37:19.720Z,84.86
2022-08-22T03:38:19.705Z,84.92
2022-08-22T03:39:19.683Z,84.86
2022-08-22T03:40:19.795Z,85.34
2022-08-22T03:41:19.657Z,85.39
2022-08-22T03:42:19.642Z,85.34
2022-08-22T03:43:19.627Z,85.30
2022-08-22T03:44:19.613Z,85.39
2022-08-22T03:45:19.597Z,85.21
2022-08-22T03:46:19.582Z,85.44
2022-08-22T03:47:19.567Z,85.39
2022-08-22T03:48:19.557Z,85.39
2022-08-22T03:49:19.535Z,85.44
2022-08-22T03:50:19.524Z,85.39
2022-08-22T03:51:19.505Z,85.39
2022-08-22T03:52:19.498Z,85.30
2022-08-22T03:53:19.519Z,85.25
2022-08-22T03:54:19.478Z,85.30
2022-08-22T03:55:19.449Z,85.21
2022-08-22T03:56:19.431Z,84.92
2022-08-22T03:57:19.419Z,85.11
2022-08-22T03:58:28.209Z,85.01
2022-08-22T03:59:19.390Z,85.21
2022-08-22T04:00:19.371Z,85.11
2022-08-22T04:01:19.468Z,84.82
2022-08-22T04:02:24.751Z,85.01
2022-08-22T04:03:19.325Z,85.01
2022-08-22T04:04:19.313Z,85.30
2022-08-22T04:05:19.299Z,85.39
2022-08-22T04:06:19.290Z,85.21
2022-08-22T04:07:28.336Z,85.01
2022-08-22T04:08:22.029Z,85.01
2022-08-22T04:09:19.248Z,85.11
2022-08-22T04:10:19.251Z,85.68
2022-08-22T04:11:19.207Z,85.21
2022-08-22T04:12:19.192Z,85.21
2022-08-22T04:13:19.176Z,85.39
2022-08-22T04:14:19.163Z,85.30
2022-08-22T04:15:19.146Z,85.30
2022-08-22T04:16:19.137Z,85.39
2022-08-22T04:17:19.117Z,85.58
2022-08-22T04:18:19.119Z,85.68
2022-08-22T04:19:19.089Z,85.77
2022-08-22T04:20:19.076Z,85.87
2022-08-22T04:21:19.056Z,85.87
2022-08-22T04:22:19.042Z,85.68
2022-08-22T04:23:19.029Z,85.68
2022-08-22T04:24:19.020Z,86.16
2022-08-22T04:25:18.996Z,86.06
2022-08-22T04:26:27.668Z,86.06
2022-08-22T04:28:23.468Z,85.97
2022-08-22T04:29:23.441Z,86.44
2022-08-22T04:31:27.924Z,86.73
2022-08-22T04:32:27.886Z,86.63
2022-08-22T04:34:33.318Z,86.63
2022-08-22T04:35:33.292Z,86.44
2022-08-22T04:37:27.669Z,86.54
2022-08-22T04:38:27.636Z,86.54
2022-08-22T04:40:33.091Z,86.35
2022-08-22T04:41:33.066Z,87.21
2022-08-22T04:43:37.528Z,87.30
2022-08-22T04:44:37.496Z,87.02
2022-08-22T04:45:37.486Z,86.63
2022-08-22T04:46:37.468Z,86.92
2022-08-22T04:47:37.458Z,86.73
2022-08-22T04:48:37.436Z,86.63
2022-08-22T04:49:37.421Z,86.73
2022-08-22T04:50:41.259Z,86.63
2022-08-22T04:51:37.394Z,86.44
2022-08-22T04:52:37.376Z,87.30
2022-08-22T04:53:37.361Z,87.30
2022-08-22T04:54:37.343Z,87.11
2022-08-22T04:55:37.331Z,87.11
2022-08-22T04:56:37.313Z,86.73
2022-08-22T04:57:37.300Z,86.73
2022-08-22T04:58:37.283Z,87.49
2022-08-22T04:59:37.271Z,87.30
2022-08-22T05:00:37.254Z,87.11
2022-08-22T05:01:37.271Z,87.30
2022-08-22T05:02:37.222Z,87.40
2022-08-22T05:03:38.437Z,87.40
2022-08-22T05:04:37.194Z,87.59
2022-08-22T05:05:37.180Z,87.59
2022-08-22T05:06:37.163Z,87.40
2022-08-22T05:07:37.157Z,87.78
2022-08-22T05:08:37.132Z,87.59
2022-08-22T05:09:37.119Z,87.78
2022-08-22T05:10:37.100Z,87.78
2022-08-22T05:11:37.124Z,87.59
2022-08-22T05:12:37.072Z,87.68
2022-08-22T05:13:37.059Z,87.68
2022-08-22T05:14:37.042Z,87.97
2022-08-22T05:15:37.027Z,88.07
2022-08-22T05:16:37.011Z,87.78
2022-08-22T05:17:36.998Z,87.78
2022-08-22T05:18:36.982Z,87.87
2022-08-22T05:19:36.968Z,87.87
2022-08-22T05:20:36.952Z,87.59
2022-08-22T05:21:36.938Z,87.68
2022-08-22T05:22:36.922Z,87.92
2022-08-22T05:23:36.907Z,87.92
2022-08-22T05:24:36.890Z,87.82
2022-08-22T05:25:36.877Z,87.87
2022-08-22T05:26:36.860Z,87.92
2022-08-22T05:27:36.847Z,88.11
2022-08-22T05:28:36.832Z,88.11
2022-08-22T05:29:36.820Z,87.63
2022-08-22T05:30:36.799Z,87.92
2022-08-22T05:31:36.789Z,87.73
2022-08-22T05:32:36.769Z,88.11
2022-08-22T05:33:36.757Z,87.82
2022-08-22T05:34:36.738Z,87.92
2022-08-22T05:35:36.726Z,88.01
2022-08-22T05:36:36.711Z,87.73
2022-08-22T05:37:36.698Z,87.87
2022-08-22T05:38:36.680Z,87.58
2022-08-22T05:39:36.810Z,87.39
2022-08-22T05:40:37.747Z,87.39
2022-08-22T05:41:36.637Z,87.39
2022-08-22T05:42:36.618Z,86.82
2022-08-22T05:43:36.613Z,87.10
2022-08-22T05:44:36.598Z,87.05
2022-08-22T05:45:36.577Z,86.67
2022-08-22T05:46:36.562Z,86.67
2022-08-22T05:47:36.547Z,86.57
2022-08-22T05:48:36.533Z,86.57
2022-08-22T05:49:36.529Z,86.19
2022-08-22T05:50:36.502Z,86.19
2022-08-22T05:51:36.489Z,85.94
2022-08-22T05:52:36.472Z,85.85
2022-08-22T05:53:36.465Z,85.57
2022-08-22T05:54:36.444Z,85.28
2022-08-22T05:55:36.431Z,84.70
2022-08-22T05:56:36.417Z,85.22
2022-08-22T05:57:36.417Z,85.03
2022-08-22T05:58:36.385Z,84.55
2022-08-22T05:59:36.373Z,85.13
2022-08-22T06:00:36.371Z,84.12
2022-08-22T06:01:36.416Z,84.22
2022-08-22T06:02:36.329Z,84.02
2022-08-22T06:03:36.314Z,84.02
2022-08-22T06:04:36.299Z,83.45
2022-08-22T06:05:36.286Z,83.45
2022-08-22T06:06:36.273Z,83.01
2022-08-22T06:07:36.260Z,83.39
2022-08-22T06:08:36.251Z,82.63
2022-08-22T06:09:36.235Z,82.34
2022-08-22T06:10:36.217Z,82.43
2022-08-22T06:11:36.215Z,82.15
2022-08-22T06:12:36.198Z,82.15
2022-08-22T06:13:36.190Z,81.96
2022-08-22T06:14:36.165Z,81.43
2022-08-22T06:15:36.233Z,82.00
2022-08-22T06:16:36.137Z,81.33
2022-08-22T06:17:36.119Z,81.62
2022-08-22T06:18:36.102Z,80.94
2022-08-22T06:19:36.098Z,80.47
2022-08-22T06:20:36.075Z,80.56
2022-08-22T06:21:39.205Z,80.37
2022-08-22T06:22:36.046Z,80.18
2022-08-22T06:23:36.042Z,80.08
2022-08-22T06:24:36.023Z,79.80
2022-08-22T06:25:36.013Z,79.93
2022-08-22T06:26:35.993Z,80.03
2022-08-22T06:27:35.985Z,79.36
2022-08-22T06:28:35.965Z,79.36
2022-08-22T06:29:35.955Z,78.88
2022-08-22T06:30:35.942Z,79.07
2022-08-22T06:31:35.930Z,78.78
2022-08-22T06:32:59.523Z,78.69
2022-08-22T06:33:35.899Z,78.30
2022-08-22T06:34:35.887Z,77.92
2022-08-22T06:35:35.872Z,78.25
2022-08-22T06:36:35.856Z,78.05
2022-08-22T06:37:35.849Z,77.58
2022-08-22T06:38:35.832Z,77.29
2022-08-22T06:39:35.821Z,77.19
2022-08-22T06:40:35.801Z,77.38
2022-08-22T06:41:35.791Z,76.62
2022-08-22T06:42:35.774Z,76.81
2022-08-22T06:43:35.765Z,76.52
2022-08-22T06:44:35.753Z,76.27
2022-08-22T06:45:35.738Z,76.37
2022-08-22T06:46:35.725Z,75.60
2022-08-22T06:47:35.711Z,76.07
2022-08-22T06:48:35.704Z,76.27
2022-08-22T06:49:35.685Z,75.40
2022-08-22T06:50:35.672Z,75.35
2022-08-22T06:51:35.659Z,75.73
2022-08-22T06:52:35.739Z,75.35
2022-08-22T06:53:35.632Z,75.06
2022-08-22T06:54:35.617Z,75.00
2022-08-22T06:55:35.606Z,75.35
2022-08-22T06:56:35.593Z,74.71
2022-08-22T06:57:35.588Z,74.13
2022-08-22T06:58:35.565Z,73.66
2022-08-22T06:59:35.555Z,73.66
2022-08-22T07:00:35.540Z,73.50
2022-08-22T07:01:35.582Z,73.21
2022-08-22T07:02:35.514Z,73.11
2022-08-22T07:03:35.505Z,72.96
2022-08-22T07:04:35.490Z,72.96
2022-08-22T07:05:35.480Z,72.38
2022-08-22T07:06:35.465Z,72.67
2022-08-22T07:07:35.453Z,72.19
2022-08-22T07:08:39.032Z,71.75
2022-08-22T07:09:35.428Z,71.65
2022-08-22T07:10:35.414Z,71.26
2022-08-22T07:11:35.403Z,71.55
2022-08-22T07:12:35.398Z,70.68
2022-08-22T07:13:35.389Z,70.62
2022-08-22T07:14:35.384Z,70.53
2022-08-22T07:15:35.361Z,69.67
2022-08-22T07:16:35.344Z,69.41
2022-08-22T07:17:40.155Z,68.84
2022-08-22T07:18:35.319Z,68.38
2022-08-22T07:19:35.307Z,68.29
2022-08-22T07:20:35.297Z,67.84
2022-08-22T07:21:36.220Z,67.46
2022-08-22T07:22:35.271Z,66.39
2022-08-22T07:23:35.266Z,66.39
2022-08-22T07:24:35.249Z,64.79
2022-08-22T07:25:35.240Z,64.79
2022-08-22T07:26:35.238Z,63.73
2022-08-22T07:27:35.216Z,63.44
2022-08-22T07:28:36.926Z,64.05
2022-08-22T07:29:35.194Z,63.76
2022-08-22T07:30:35.185Z,63.47
2022-08-22T07:31:35.176Z,63.18
2022-08-22T07:32:35.159Z,62.89
2022-08-22T07:33:35.152Z,62.44
2022-08-22T07:34:35.138Z,62.54
2022-08-22T07:35:35.128Z,62.25
2022-08-22T07:36:35.117Z,61.57
2022-08-22T07:37:35.109Z,61.51
2022-08-22T07:38:35.099Z,61.41
2022-08-22T07:39:35.095Z,61.41
2022-08-22T07:40:35.074Z,60.54
2022-08-22T07:41:35.074Z,59.67
2022-08-22T07:42:35.058Z,60.16
2022-08-22T07:43:35.045Z,59.99
2022-08-22T07:44:35.042Z,60.18
2022-08-22T07:45:35.028Z,59.70
2022-08-22T07:46:35.016Z,59.41
2022-08-22T07:47:35.009Z,59.22
2022-08-22T07:48:48.493Z,58.95
2022-08-22T07:49:34.988Z,58.47
2022-08-22T07:50:34.981Z,57.89
2022-08-22T07:51:34.968Z,57.73
2022-08-22T07:52:34.958Z,57.34
2022-08-22T07:53:34.955Z,57.31
2022-08-22T07:54:34.943Z,57.92
2022-08-22T07:55:34.933Z,57.63
2022-08-22T07:56:34.925Z,56.95
2022-08-22T07:57:34.916Z,57.15
2022-08-22T07:58:34.903Z,56.60
2022-08-22T07:59:34.900Z,56.40
2022-08-22T08:00:34.885Z,56.50
2022-08-22T08:01:34.972Z,56.30
2022-08-22T08:02:34.868Z,55.85
2022-08-22T08:03:34.862Z,55.76
2022-08-22T08:04:39.544Z,55.49
2022-08-22T08:05:34.848Z,54.71
2022-08-22T08:06:34.836Z,55.00
2022-08-22T08:07:34.831Z,53.85
2022-08-22T08:08:34.822Z,54.13
2022-08-22T08:09:34.818Z,53.97
2022-08-22T08:10:34.814Z,54.16
2022-08-22T08:11:34.798Z,52.90
2022-08-22T08:12:34.794Z,53.39
2022-08-22T08:13:34.785Z,53.22
2022-08-22T08:14:34.777Z,52.34
2022-08-22T08:15:34.772Z,52.34
2022-08-22T08:16:34.762Z,52.54
2022-08-22T08:17:34.758Z,52.15
2022-08-22T08:18:34.748Z,52.44
2022-08-22T08:19:34.743Z,51.79
2022-08-22T08:20:34.738Z,51.98
2022-08-22T08:21:34.731Z,50.62
2022-08-22T08:22:34.721Z,49.66
2022-08-22T08:23:39.027Z,49.39
2022-08-22T08:24:36.407Z,49.49
2022-08-22T08:25:34.706Z,49.29
2022-08-22T08:26:34.696Z,49.68
2022-08-22T08:27:34.692Z,49.51
2022-08-22T08:28:34.801Z,48.61
2022-08-22T08:29:34.680Z,48.54
2022-08-22T08:30:34.676Z,48.35
2022-08-22T08:31:34.669Z,47.66
2022-08-22T08:32:34.661Z,47.49
2022-08-22T08:33:34.658Z,47.30
2022-08-22T08:34:35.404Z,47.11
2022-08-22T08:35:42.406Z,45.75
2022-08-22T08:36:34.639Z,45.84
2022-08-22T08:37:34.634Z,45.75
2022-08-22T08:38:34.636Z,46.06
2022-08-22T08:39:35.319Z,46.74
2022-08-22T08:40:34.619Z,45.97
2022-08-22T08:41:34.619Z,46.86
2022-08-22T08:42:34.607Z,46.28
2022-08-22T08:43:34.601Z,46.20
2022-08-22T08:44:34.599Z,44.94
2022-08-22T08:45:34.593Z,45.14
2022-08-22T08:46:34.587Z,43.77
2022-08-22T08:47:34.590Z,43.96
2022-08-22T08:48:34.575Z,44.26
2022-08-22T08:49:34.579Z,43.96
2022-08-22T08:50:34.569Z,44.06
2022-08-22T08:51:34.571Z,43.11
2022-08-22T08:52:34.555Z,43.21
2022-08-22T08:53:34.550Z,43.43
2022-08-22T08:54:34.549Z,43.43
2022-08-22T08:55:34.542Z,42.57
2022-08-22T08:56:34.536Z,42.18
2022-08-22T08:57:34.533Z,41.40
2022-08-22T08:58:34.530Z,40.25
2022-08-22T08:59:34.522Z,40.06
2022-08-22T09:00:34.521Z,39.75
2022-08-22T09:01:34.592Z,39.45
2022-08-22T09:02:35.190Z,38.77
2022-08-22T09:03:34.504Z,39.36
2022-08-22T09:04:34.505Z,40.13
2022-08-22T09:05:34.496Z,39.94
2022-08-22T09:06:34.493Z,40.25
2022-08-22T09:08:34.490Z,39.86
2022-08-22T09:09:34.480Z,39.49
2022-08-22T09:10:34.477Z,37.45
2022-08-22T09:11:34.471Z,37.83
2022-08-22T09:12:34.468Z,37.85
2022-08-22T09:13:40.975Z,37.17
2022-08-22T09:14:34.460Z,36.68
2022-08-22T09:15:37.406Z,36.68
2022-08-22T09:16:34.451Z,36.78
2022-08-22T09:17:34.446Z,37.19
2022-08-22T09:18:34.445Z,36.31
2022-08-22T09:19:34.438Z,36.82
2022-08-22T09:20:34.435Z,37.11
2022-08-22T09:21:34.432Z,36.72
2022-08-22T09:22:46.249Z,35.17
2022-08-22T09:23:34.422Z,34.78
2022-08-22T09:24:34.421Z,35.07
2022-08-22T09:26:34.417Z,34.70
2022-08-22T09:27:34.457Z,34.99
2022-08-22T09:28:34.404Z,33.53
2022-08-22T09:29:34.403Z,33.12
2022-08-22T09:30:34.395Z,33.90
2022-08-22T09:31:51.536Z,33.51
2022-08-22T09:32:34.401Z,33.70
2022-08-22T09:33:34.385Z,34.58
2022-08-22T09:34:34.381Z,34.39
2022-08-22T09:35:34.377Z,33.43
2022-08-22T09:36:34.377Z,33.62
2022-08-22T09:37:34.371Z,34.01
2022-08-22T09:38:34.659Z,33.84
2022-08-22T09:39:34.367Z,33.45
2022-08-22T09:40:34.360Z,33.15
2022-08-22T09:41:34.358Z,33.45
2022-08-22T09:42:34.355Z,32.97
2022-08-22T09:43:34.349Z,32.78
2022-08-22T09:44:34.358Z,32.78
2022-08-22T09:45:34.343Z,32.09
2022-08-22T09:46:36.954Z,31.90
2022-08-22T09:47:34.346Z,31.91
2022-08-22T09:48:34.335Z,32.30
2022-08-22T09:49:34.335Z,33.09
2022-08-22T09:50:34.329Z,32.90
2022-08-22T09:51:34.323Z,32.81
2022-08-22T09:52:35.714Z,31.94
2022-08-22T09:53:34.321Z,30.87
2022-08-22T09:54:34.319Z,31.26
2022-08-22T09:55:35.196Z,32.14
2022-08-22T09:56:34.313Z,32.14
2022-08-22T09:57:34.310Z,31.35
2022-08-22T09:58:37.702Z,30.96
2022-08-22T09:59:34.303Z,30.96
2022-08-22T10:00:34.301Z,31.65
2022-08-22T10:01:34.329Z,30.77
2022-08-22T10:02:34.294Z,30.68
2022-08-22T10:03:34.295Z,30.39
2022-08-22T10:04:34.335Z,30.58
2022-08-22T10:05:40.730Z,30.49
2022-08-22T10:06:34.288Z,30.78
2022-08-22T10:07:34.279Z,30.78
2022-08-22T10:08:34.283Z,30.60
2022-08-22T10:09:34.275Z,30.70
2022-08-22T10:10:34.273Z,30.90
2022-08-22T10:11:34.301Z,30.62
2022-08-22T10:12:35.972Z,30.22
2022-08-22T10:13:34.277Z,30.14
2022-08-22T10:14:34.270Z,29.47
2022-08-22T10:15:34.279Z,28.97
2022-08-22T10:16:34.276Z,28.59
2022-08-22T10:17:34.356Z,28.11
2022-08-22T10:18:34.272Z,28.11
2022-08-22T10:19:34.257Z,27.23
2022-08-22T10:20:34.252Z,27.12
2022-08-22T10:21:34.249Z,27.43
2022-08-22T10:22:34.252Z,27.43
2022-08-22T10:23:34.246Z,26.74
2022-08-22T10:24:34.257Z,26.25
2022-08-22T10:25:34.242Z,26.93
2022-08-22T10:26:38.532Z,27.14
2022-08-22T10:27:34.239Z,27.25
2022-08-22T10:28:34.244Z,26.46
2022-08-22T10:29:34.244Z,26.56
2022-08-22T10:30:34.240Z,26.95
2022-08-22T10:31:34.234Z,25.87
2022-08-22T10:32:34.233Z,26.07
2022-08-22T10:33:34.231Z,25.67
2022-08-22T10:34:34.230Z,24.88
2022-08-22T10:35:34.288Z,25.38
2022-08-22T10:36:34.247Z,25.57
2022-08-22T10:37:34.238Z,24.79
2022-08-22T10:38:34.336Z,24.69
2022-08-22T10:39:34.222Z,24.11
2022-08-22T10:40:34.225Z,24.21
2022-08-22T10:41:34.223Z,24.41
2022-08-22T10:42:35.076Z,24.24
2022-08-22T10:43:34.324Z,24.16
2022-08-22T10:44:34.236Z,23.87
2022-08-22T10:45:36.021Z,23.80
2022-08-22T10:46:34.219Z,23.32
2022-08-22T10:47:34.224Z,23.13
2022-08-22T10:48:34.224Z,23.22
2022-08-22T10:49:34.234Z,22.74
2022-08-22T10:50:34.217Z,22.36
2022-08-22T10:51:34.215Z,22.37
2022-08-22T10:52:34.217Z,22.08
2022-08-22T10:53:34.747Z,21.69
2022-08-22T10:54:34.230Z,21.29
2022-08-22T10:55:34.214Z,21.09
2022-08-22T10:56:34.219Z,21.18
2022-08-22T10:57:34.218Z,21.08
2022-08-22T10:58:34.229Z,21.29
2022-08-22T10:59:34.214Z,20.19
2022-08-22T11:00:34.279Z,18.29
2022-08-22T11:01:38.136Z,18.57
2022-08-22T11:02:34.216Z,19.74
2022-08-22T11:03:34.294Z,20.42
2022-08-22T11:04:34.225Z,20.61
2022-08-22T11:05:34.216Z,20.50
2022-08-22T11:06:34.222Z,20.79
2022-08-22T11:07:34.216Z,20.79
2022-08-22T11:08:34.641Z,20.70
2022-08-22T11:09:36.917Z,20.70
2022-08-22T11:10:34.931Z,20.90
2022-08-22T11:11:34.215Z,20.70
2022-08-22T11:12:35.057Z,20.91
2022-08-22T11:13:34.261Z,20.81
2022-08-22T11:14:34.215Z,20.83
2022-08-22T11:15:35.192Z,20.34
2022-08-22T11:16:36.641Z,19.65
2022-08-22T11:17:38.113Z,18.96
2022-08-22T11:18:34.214Z,18.37
2022-08-22T11:19:34.214Z,18.67
2022-08-22T11:20:34.214Z,18.76
2022-08-22T11:21:34.213Z,19.06
2022-08-22T11:22:34.215Z,19.35
2022-08-22T11:23:34.217Z,19.35
2022-08-22T11:24:35.689Z,19.17
2022-08-22T11:25:38.401Z,19.17
2022-08-22T11:26:41.678Z,18.37
2022-08-22T11:27:38.047Z,17.68
2022-08-22T11:28:34.227Z,17.49
2022-08-22T11:29:34.218Z,16.99
2022-08-22T11:30:36.406Z,17.38
2022-08-22T11:31:36.483Z,18.27
2022-08-22T11:32:34.215Z,18.57
2022-08-22T11:33:46.424Z,18.87
2022-08-22T11:34:34.227Z,18.68
2022-08-22T11:35:34.220Z,18.29
2022-08-22T11:36:34.218Z,18.29
2022-08-22T11:37:43.297Z,17.70
2022-08-22T11:38:36.173Z,17.99
2022-08-22T11:39:34.216Z,18.10
2022-08-22T11:40:34.308Z,17.61
2022-08-22T11:41:34.217Z,17.32
2022-08-22T11:42:34.224Z,17.23
2022-08-22T11:43:34.218Z,17.43
2022-08-22T11:44:34.532Z,17.54
2022-08-22T11:45:34.222Z,16.25
2022-08-22T11:46:34.225Z,15.36
2022-08-22T11:47:34.226Z,15.16
2022-08-22T11:48:34.234Z,16.14
2022-08-22T11:49:34.223Z,16.53
2022-08-22T11:50:34.224Z,16.93
2022-08-22T11:51:34.377Z,16.83
2022-08-22T11:52:34.240Z,17.12
2022-08-22T11:53:34.231Z,17.03
2022-08-22T11:54:34.229Z,16.44
2022-08-22T11:55:34.361Z,16.55
2022-08-22T11:56:34.229Z,16.84
2022-08-22T11:57:34.229Z,16.44
2022-08-22T11:58:34.230Z,16.06
2022-08-22T11:59:34.230Z,16.35
2022-08-22T12:00:34.234Z,16.16
2022-08-22T12:01:34.648Z,16.07
2022-08-22T12:02:34.288Z,15.97
2022-08-22T12:03:34.289Z,16.18
2022-08-22T12:04:34.325Z,15.69
2022-08-22T12:05:34.239Z,15.50
2022-08-22T12:06:34.720Z,15.80
2022-08-22T12:07:34.242Z,15.80
2022-08-22T12:08:34.246Z,15.42
2022-08-22T12:09:34.249Z,15.52
2022-08-22T12:10:34.261Z,15.43
2022-08-22T12:11:34.251Z,14.73
2022-08-22T12:12:34.251Z,14.83
2022-08-22T12:13:35.428Z,15.14
2022-08-22T12:14:34.263Z,14.94
2022-08-22T12:15:34.287Z,15.13
2022-08-22T12:16:34.262Z,15.12
2022-08-22T12:17:55.220Z,14.82
2022-08-22T12:18:34.277Z,13.81
2022-08-22T12:19:34.270Z,14.39
2022-08-22T12:20:34.272Z,15.17
2022-08-22T12:21:38.522Z,15.06
2022-08-22T12:22:34.308Z,15.57
2022-08-22T12:23:43.297Z,15.97
2022-08-22T12:24:34.286Z,15.67
2022-08-22T12:25:34.277Z,15.58
2022-08-22T12:26:34.283Z,15.97
2022-08-22T12:27:34.277Z,15.77
2022-08-22T12:28:34.280Z,16.16
2022-08-22T12:29:39.815Z,16.46
2022-08-22T12:30:34.283Z,15.66
2022-08-22T12:31:34.283Z,15.55
2022-08-22T12:32:34.307Z,15.34
2022-08-22T12:33:34.287Z,14.44
2022-08-22T12:34:34.292Z,15.33
2022-08-22T12:35:34.288Z,16.11
2022-08-22T12:36:34.292Z,16.21
2022-08-22T12:37:34.289Z,16.22
2022-08-22T12:38:37.859Z,16.02
2022-08-22T12:39:34.298Z,15.63
2022-08-22T12:40:36.422Z,16.12
2022-08-22T12:41:35.102Z,16.22
2022-08-22T12:42:34.299Z,16.12
2022-08-22T12:43:34.297Z,16.31
2022-08-22T12:44:34.307Z,15.73
2022-08-22T12:45:34.313Z,15.73
2022-08-22T12:46:34.300Z,15.23
2022-08-22T12:47:34.537Z,15.63
2022-08-22T12:48:34.314Z,15.83
2022-08-22T12:49:34.307Z,16.03
2022-08-22T12:50:34.329Z,15.64
2022-08-22T12:51:34.300Z,15.66
2022-08-22T12:52:34.301Z,15.48